Time;durP1;ratioP1;P1;durP2;ratioP2;P2;SDS_P1;SDS_P2;PMS_P1;PMS_P2;Temp;Humidity;BMP_temperature;BMP_pressure;BME280_temperature;BME280_humidity;BME280_pressure;Samples;Min_cycle;Max_cycle;Signal;HPM_P1;HPM_P2
2021/08/11 00:01:11;;;;;;;9.87;8.97;;;16.20;99.90;;;;;;4892546;29;20702;-78
2021/08/11 00:03:38;;;;;;;10.30;9.40;;;16.20;99.90;;;;;;4891249;29;20212;-78
2021/08/11 00:06:04;;;;;;;9.80;9.00;;;16.20;99.90;;;;;;4892012;29;20196;-78
2021/08/11 00:08:32;;;;;;;9.73;8.93;;;16.10;99.90;;;;;;4892143;29;20251;-78
2021/08/11 00:10:59;;;;;;;9.93;9.10;;;16.20;99.90;;;;;;4904607;29;20217;-78
2021/08/11 00:13:26;;;;;;;10.60;9.70;;;16.20;99.90;;;;;;4892227;29;20265;-77
2021/08/11 00:15:53;;;;;;;10.63;9.83;;;16.20;99.90;;;;;;4889263;29;20257;-77
2021/08/11 00:18:20;;;;;;;10.70;9.90;;;16.20;99.90;;;;;;4891865;29;20235;-77
2021/08/11 00:20:46;;;;;;;11.43;10.53;;;16.20;99.90;;;;;;4904153;29;20659;-78
2021/08/11 00:23:14;;;;;;;11.07;10.07;;;16.30;99.90;;;;;;4893307;29;20210;-78
2021/08/11 00:25:43;;;;;;;11.40;10.27;;;16.20;99.90;;;;;;4889336;29;20209;-78
2021/08/11 00:28:09;;;;;;;11.63;10.53;;;16.20;99.90;;;;;;4893140;29;20421;-78
2021/08/11 00:30:37;;;;;;;10.83;9.83;;;16.20;99.90;;;;;;4889109;29;20236;-77
2021/08/11 00:33:04;;;;;;;9.67;8.80;;;16.20;99.90;;;;;;4880097;29;20214;-78
2021/08/11 00:35:31;;;;;;;10.53;9.73;;;16.10;99.90;;;;;;4893475;29;20215;-77
2021/08/11 00:37:58;;;;;;;9.47;8.77;;;16.10;99.90;;;;;;4898502;29;20226;-77
2021/08/11 00:40:29;;;;;;;9.83;9.00;;;16.00;99.90;;;;;;4892226;29;20224;-77
2021/08/11 00:42:58;;;;;;;10.17;9.33;;;16.00;99.90;;;;;;4902642;29;20218;-78
2021/08/11 00:45:25;;;;;;;10.20;9.40;;;16.00;99.90;;;;;;4893552;29;20211;-77
2021/08/11 00:47:55;;;;;;;11.07;10.17;;;16.00;99.90;;;;;;4887444;29;20205;-78
2021/08/11 00:50:24;;;;;;;10.43;9.53;;;15.90;99.90;;;;;;4887293;29;20281;-77
2021/08/11 00:52:53;;;;;;;10.20;9.40;;;15.90;99.90;;;;;;4892377;29;20241;-77
2021/08/11 00:55:21;;;;;;;9.97;9.07;;;15.90;99.90;;;;;;4886494;29;20704;-77
2021/08/11 00:57:53;;;;;;;10.27;9.47;;;15.90;99.90;;;;;;4893153;29;20220;-77
2021/08/11 01:00:23;;;;;;;10.97;10.00;;;15.90;99.90;;;;;;4886761;29;20221;-78
2021/08/11 01:02:52;;;;;;;10.30;9.30;;;15.80;99.90;;;;;;4887081;29;20205;-77
2021/08/11 01:05:20;;;;;;;10.30;9.47;;;15.80;99.90;;;;;;4887270;29;20209;-78
2021/08/11 01:07:51;;;;;;;8.50;7.90;;;15.80;99.90;;;;;;4889617;29;20627;-78
2021/08/11 01:10:19;;;;;;;10.00;9.20;;;15.70;99.90;;;;;;4887101;29;20777;-78
2021/08/11 01:12:46;;;;;;;10.53;9.63;;;15.70;99.90;;;;;;4899679;29;20210;-78
2021/08/11 01:15:13;;;;;;;10.37;9.47;;;15.70;99.90;;;;;;4886986;29;20203;-77
2021/08/11 01:17:42;;;;;;;10.50;9.70;;;15.70;99.90;;;;;;4886950;29;20223;-77
2021/08/11 01:20:10;;;;;;;5.77;5.17;;;15.60;99.90;;;;;;4886401;29;20288;-77
2021/08/11 01:22:42;;;;;;;6.20;5.23;;;15.60;99.90;;;;;;4886331;29;20210;-77
2021/08/11 01:25:14;;;;;;;8.30;7.60;;;15.60;99.90;;;;;;4886019;29;20217;-77
2021/08/11 01:28:06;;;;;;;10.03;9.23;;;15.60;99.90;;;;;;4888638;29;20205;-77
2021/08/11 01:30:38;;;;;;;11.00;10.20;;;15.60;99.90;;;;;;4888302;29;20607;-77
2021/08/11 01:33:31;;;;;;;10.50;9.60;;;15.60;99.90;;;;;;4883781;29;20201;-77
2021/08/11 01:36:07;;;;;;;9.77;8.87;;;15.60;99.90;;;;;;4870179;29;20204;-77
2021/08/11 01:38:37;;;;;;;9.50;8.70;;;15.50;99.90;;;;;;4897341;29;20228;-77
2021/08/11 01:41:07;;;;;;;9.70;8.90;;;15.50;99.90;;;;;;4904253;29;20605;-78
2021/08/11 01:43:40;;;;;;;8.70;7.80;;;15.50;99.90;;;;;;4902283;29;20197;-77
2021/08/11 01:46:10;;;;;;;8.60;7.90;;;15.40;99.90;;;;;;4903474;29;20202;-77
2021/08/11 01:48:40;;;;;;;8.60;7.90;;;15.40;99.90;;;;;;4894754;29;20197;-78
2021/08/11 01:51:09;;;;;;;8.97;8.27;;;15.40;99.90;;;;;;4906634;23;20233;-77
2021/08/11 01:53:37;;;;;;;8.77;8.07;;;15.40;99.90;;;;;;4866401;29;20545;-77
2021/08/11 01:56:10;;;;;;;9.07;8.23;;;15.40;99.90;;;;;;4871627;29;20292;-77
2021/08/11 01:58:45;;;;;;;10.63;9.70;;;15.30;99.90;;;;;;4863869;29;20209;-76
2021/08/11 02:01:13;;;;;;;10.83;9.83;;;15.30;99.90;;;;;;4870768;29;20240;-76
2021/08/11 02:03:45;;;;;;;11.20;10.17;;;15.30;99.90;;;;;;4867297;29;20201;-76
2021/08/11 02:06:13;;;;;;;11.57;10.47;;;15.20;99.90;;;;;;4868226;29;20201;-76
2021/08/11 02:08:44;;;;;;;12.60;11.60;;;15.20;99.90;;;;;;4867076;29;20202;-76
2021/08/11 02:11:14;;;;;;;12.97;11.90;;;15.20;99.90;;;;;;4869221;29;20312;-76
2021/08/11 02:13:42;;;;;;;12.07;10.97;;;15.20;99.90;;;;;;4870403;29;20226;-76
2021/08/11 02:16:12;;;;;;;6.50;5.33;;;15.10;99.90;;;;;;4869299;29;20740;-78
2021/08/11 02:18:39;;;;;;;5.90;5.30;;;15.10;99.90;;;;;;4869777;29;20222;-77
2021/08/11 02:21:07;;;;;;;8.07;5.73;;;15.10;99.90;;;;;;4871961;29;20312;-76
2021/08/11 02:23:35;;;;;;;6.40;5.17;;;15.00;99.90;;;;;;4864433;29;20213;-76
2021/08/11 02:26:10;;;;;;;7.40;6.03;;;15.00;99.90;;;;;;4872113;29;20228;-76
2021/08/11 02:28:47;;;;;;;11.13;10.23;;;15.00;99.90;;;;;;4865333;29;20216;-76
2021/08/11 02:31:23;;;;;;;7.23;5.90;;;15.00;99.90;;;;;;4867107;29;20229;-77
2021/08/11 02:33:56;;;;;;;6.43;5.20;;;15.00;99.90;;;;;;4873185;29;20202;-78
2021/08/11 02:36:29;;;;;;;6.40;5.80;;;15.00;99.90;;;;;;4872964;29;20202;-76
2021/08/11 02:39:01;;;;;;;7.77;5.53;;;14.90;99.90;;;;;;4870014;29;20227;-76
2021/08/11 02:41:32;;;;;;;8.47;5.87;;;14.90;99.90;;;;;;4870013;29;20297;-80
2021/08/11 02:44:04;;;;;;;7.40;5.67;;;14.90;99.90;;;;;;4871789;29;20293;-80
2021/08/11 02:46:34;;;;;;;5.73;4.83;;;14.80;99.90;;;;;;4869245;29;20679;-80
2021/08/11 02:49:05;;;;;;;6.73;5.00;;;14.80;99.90;;;;;;4870796;29;20204;-80
2021/08/11 02:51:36;;;;;;;5.77;5.17;;;14.80;99.90;;;;;;4855413;29;20236;-79
2021/08/11 02:54:07;;;;;;;7.00;5.57;;;14.80;99.90;;;;;;4858490;29;20288;-80
2021/08/11 02:56:35;;;;;;;7.27;5.07;;;14.70;99.90;;;;;;4868481;29;20586;-80
2021/08/11 02:59:04;;;;;;;5.40;4.63;;;14.70;99.90;;;;;;4874150;29;20228;-81
2021/08/11 03:01:31;;;;;;;5.33;4.50;;;14.60;99.90;;;;;;4856023;29;20725;-79
2021/08/11 03:04:00;;;;;;;6.90;5.17;;;14.70;99.90;;;;;;4860487;29;20205;-79
2021/08/11 03:06:27;;;;;;;6.37;5.07;;;14.70;99.90;;;;;;4862661;29;20685;-80
2021/08/11 03:08:56;;;;;;;5.97;4.80;;;14.70;99.90;;;;;;4869707;29;20683;-77
2021/08/11 03:11:23;;;;;;;7.50;6.50;;;14.70;99.90;;;;;;4868888;29;20229;-77
2021/08/11 03:13:52;;;;;;;6.43;5.03;;;14.70;99.90;;;;;;4872468;29;20585;-76
2021/08/11 03:16:19;;;;;;;5.53;5.03;;;14.60;99.90;;;;;;4870608;29;20211;-77
2021/08/11 03:18:46;;;;;;;7.13;5.67;;;14.60;99.90;;;;;;4865938;29;20702;-80
2021/08/11 03:21:13;;;;;;;7.10;6.43;;;14.50;99.90;;;;;;4867225;29;20252;-79
2021/08/11 03:23:40;;;;;;;7.13;5.60;;;14.50;99.90;;;;;;4867852;29;20213;-78
2021/08/11 03:26:08;;;;;;;5.83;5.00;;;14.60;99.90;;;;;;4873727;29;20205;-78
2021/08/11 03:28:36;;;;;;;8.23;6.27;;;14.60;99.90;;;;;;4870520;29;20223;-78
2021/08/11 03:31:04;;;;;;;7.90;5.67;;;14.50;99.90;;;;;;4870647;29;20730;-80
2021/08/11 03:33:32;;;;;;;6.03;5.33;;;14.50;99.90;;;;;;4878351;29;20213;-76
2021/08/11 03:35:58;;;;;;;7.03;6.17;;;14.50;99.90;;;;;;4869333;29;20210;-78
2021/08/11 03:38:26;;;;;;;8.83;8.03;;;14.50;99.90;;;;;;4867553;29;20251;-76
2021/08/11 03:40:52;;;;;;;10.07;9.27;;;14.50;99.90;;;;;;4870151;29;20237;-76
2021/08/11 03:43:21;;;;;;;12.00;10.97;;;14.50;99.90;;;;;;4867912;29;20286;-76
2021/08/11 03:45:48;;;;;;;8.73;7.80;;;14.40;99.90;;;;;;4864124;29;20214;-76
2021/08/11 03:48:15;;;;;;;7.13;5.60;;;14.50;99.90;;;;;;4865431;29;20217;-77
2021/08/11 03:50:44;;;;;;;6.40;5.17;;;14.40;99.90;;;;;;4869738;29;20247;-77
2021/08/11 03:53:11;;;;;;;7.53;5.10;;;14.40;99.90;;;;;;4869779;29;20206;-76
2021/08/11 03:55:38;;;;;;;8.27;5.50;;;14.40;99.90;;;;;;4868238;29;20210;-76
2021/08/11 03:58:06;;;;;;;7.73;5.50;;;14.40;99.90;;;;;;4868897;29;20225;-77
2021/08/11 04:00:34;;;;;;;6.07;5.47;;;14.40;99.90;;;;;;4869788;29;20211;-76
2021/08/11 04:03:01;;;;;;;7.00;6.20;;;14.30;99.90;;;;;;4869081;29;20296;-76
2021/08/11 04:05:28;;;;;;;7.47;6.40;;;14.30;99.90;;;;;;4869061;29;20624;-77
2021/08/11 04:07:55;;;;;;;10.10;9.27;;;14.40;99.90;;;;;;4864237;29;20288;-77
2021/08/11 04:10:22;;;;;;;6.80;5.70;;;14.40;99.90;;;;;;4871678;29;20219;-77
2021/08/11 04:12:49;;;;;;;7.57;5.63;;;14.40;99.90;;;;;;4867757;29;20686;-77
2021/08/11 04:15:16;;;;;;;8.27;5.90;;;14.40;99.90;;;;;;4869452;29;20209;-77
2021/08/11 04:17:44;;;;;;;5.80;5.20;;;14.50;99.90;;;;;;4869559;29;20224;-77
2021/08/11 04:20:12;;;;;;;6.60;5.50;;;14.60;99.90;;;;;;4869135;29;20245;-77
2021/08/11 04:22:38;;;;;;;6.03;5.43;;;14.60;99.90;;;;;;4870244;29;20324;-76
2021/08/11 04:25:06;;;;;;;8.00;5.60;;;14.70;99.90;;;;;;4865400;29;20208;-77
2021/08/11 04:27:33;;;;;;;6.37;5.67;;;14.80;99.90;;;;;;4863385;29;20294;-76
2021/08/11 04:30:00;;;;;;;11.37;10.47;;;14.80;99.90;;;;;;4871299;29;20288;-77
2021/08/11 04:32:26;;;;;;;7.47;5.53;;;14.90;99.90;;;;;;4868262;29;20335;-77
2021/08/11 04:34:55;;;;;;;13.53;12.60;;;14.90;99.90;;;;;;4870845;29;20240;-77
2021/08/11 04:37:21;;;;;;;12.73;11.63;;;14.90;99.90;;;;;;4867685;29;20248;-77
2021/08/11 04:39:49;;;;;;;5.90;5.30;;;15.00;99.90;;;;;;4870504;29;20237;-77
2021/08/11 04:42:16;;;;;;;7.20;5.70;;;15.00;99.90;;;;;;4868018;29;20232;-77
2021/08/11 04:44:43;;;;;;;6.10;5.50;;;15.00;99.90;;;;;;4864700;29;20293;-77
2021/08/11 04:47:09;;;;;;;7.03;5.80;;;15.10;99.90;;;;;;4870996;29;20292;-77
2021/08/11 04:49:36;;;;;;;12.73;11.73;;;15.10;99.90;;;;;;4866598;29;20244;-77
2021/08/11 04:52:04;;;;;;;12.27;11.27;;;15.20;99.90;;;;;;4868801;29;20273;-77
2021/08/11 04:54:31;;;;;;;9.40;8.43;;;15.30;99.90;;;;;;4868040;29;20773;-77
2021/08/11 04:56:58;;;;;;;9.97;9.17;;;15.30;99.90;;;;;;4867008;29;20297;-76
2021/08/11 04:59:25;;;;;;;14.10;13.10;;;15.50;99.90;;;;;;4867907;29;20228;-77
2021/08/11 05:01:51;;;;;;;11.40;10.40;;;15.50;99.90;;;;;;4868529;29;20692;-77
2021/08/11 05:04:18;;;;;;;11.83;10.93;;;15.70;99.90;;;;;;4868405;29;20254;-77
2021/08/11 05:06:45;;;;;;;13.20;12.20;;;15.80;99.90;;;;;;4865780;29;20300;-77
2021/08/11 05:09:13;;;;;;;13.37;12.53;;;15.90;99.90;;;;;;4867658;29;20297;-77
2021/08/11 05:11:41;;;;;;;12.27;11.37;;;16.00;99.90;;;;;;4868284;29;20309;-77
2021/08/11 05:14:07;;;;;;;13.67;12.70;;;16.20;99.90;;;;;;4867792;29;20194;-77
2021/08/11 05:16:34;;;;;;;12.67;11.77;;;16.40;99.90;;;;;;4867953;29;20209;-77
2021/08/11 05:19:01;;;;;;;11.10;10.30;;;16.50;99.90;;;;;;4863219;29;20315;-77
2021/08/11 05:21:28;;;;;;;6.50;5.80;;;16.60;99.90;;;;;;4870648;29;20250;-76
2021/08/11 05:23:55;;;;;;;15.10;14.07;;;16.70;99.90;;;;;;4865958;29;20204;-76
2021/08/11 05:26:23;;;;;;;12.17;11.17;;;16.70;99.90;;;;;;4866793;29;20574;-77
2021/08/11 05:28:50;;;;;;;14.90;13.90;;;16.80;99.90;;;;;;4868833;29;20293;-77
2021/08/11 05:31:17;;;;;;;14.43;13.33;;;16.80;99.90;;;;;;4867507;29;20650;-77
2021/08/11 05:33:44;;;;;;;10.77;9.97;;;16.90;99.90;;;;;;4866960;29;20269;-77
2021/08/11 05:36:11;;;;;;;11.40;10.50;;;16.90;99.90;;;;;;4867299;29;20302;-76
2021/08/11 05:38:38;;;;;;;14.00;13.00;;;17.10;99.90;;;;;;4870254;29;20804;-76
2021/08/11 05:41:06;;;;;;;14.17;13.17;;;17.30;99.90;;;;;;4864457;29;20226;-76
2021/08/11 05:43:34;;;;;;;14.07;13.17;;;17.50;99.90;;;;;;4867763;29;20298;-77
2021/08/11 05:46:01;;;;;;;12.13;11.23;;;17.60;99.90;;;;;;4867174;29;20696;-76
2021/08/11 05:48:27;;;;;;;13.90;13.00;;;17.80;99.90;;;;;;4866968;29;20296;-77
2021/08/11 05:50:54;;;;;;;13.60;12.60;;;18.20;99.90;;;;;;4874254;29;20327;-77
2021/08/11 05:53:21;;;;;;;9.37;8.57;;;18.60;99.90;;;;;;4867099;29;20299;-77
2021/08/11 05:55:49;;;;;;;6.57;5.87;;;18.80;99.90;;;;;;4873182;29;20296;-77
2021/08/11 05:58:16;;;;;;;12.33;11.43;;;18.80;99.90;;;;;;4867567;29;20209;-77
2021/08/11 06:00:44;;;;;;;13.13;12.23;;;18.80;99.90;;;;;;4864660;29;20727;-77
2021/08/11 06:03:11;;;;;;;11.10;10.13;;;18.70;99.90;;;;;;4867038;29;20202;-77
2021/08/11 06:05:47;;;;;;;7.83;6.23;;;18.70;99.90;;;;;;4866309;29;20750;-78
2021/08/11 06:08:13;;;;;;;5.30;4.80;;;18.70;99.90;;;;;;4865477;29;20199;-77
2021/08/11 06:10:40;;;;;;;8.83;8.13;;;18.80;99.90;;;;;;4867449;29;20209;-77
2021/08/11 06:13:07;;;;;;;8.73;7.90;;;18.80;99.90;;;;;;4866609;29;20258;-78
2021/08/11 06:15:34;;;;;;;13.20;12.20;;;18.80;99.90;;;;;;4870250;29;20205;-77
2021/08/11 06:18:02;;;;;;;12.50;11.50;;;18.90;99.90;;;;;;4864215;29;20205;-77
2021/08/11 06:20:28;;;;;;;12.00;10.90;;;18.90;99.90;;;;;;4862778;29;20225;-77
2021/08/11 06:22:55;;;;;;;12.00;11.10;;;19.00;99.90;;;;;;4868888;29;20249;-77
2021/08/11 06:25:22;;;;;;;10.57;9.77;;;19.10;99.90;;;;;;4865345;29;20207;-77
2021/08/11 06:27:49;;;;;;;11.60;10.80;;;19.20;99.90;;;;;;4868035;29;20213;-77
2021/08/11 06:30:16;;;;;;;13.43;12.43;;;19.30;99.90;;;;;;4865156;29;20264;-77
2021/08/11 06:32:43;;;;;;;13.57;12.50;;;19.50;99.90;;;;;;4866385;29;20309;-77
2021/08/11 06:35:12;;;;;;;13.33;12.43;;;19.60;99.90;;;;;;4867667;29;20478;-77
2021/08/11 06:37:46;;;;;;;13.47;12.57;;;19.70;99.90;;;;;;4864783;29;20295;-77
2021/08/11 06:40:13;;;;;;;13.40;12.50;;;19.70;99.90;;;;;;4866611;29;20224;-77
2021/08/11 06:42:41;;;;;;;6.53;4.70;;;19.80;99.90;;;;;;4867496;29;20645;-77
2021/08/11 06:45:12;;;;;;;14.00;12.80;;;20.00;99.90;;;;;;4859675;29;20205;-77
2021/08/11 06:47:38;;;;;;;8.63;7.83;;;20.10;99.90;;;;;;4865927;29;20214;-77
2021/08/11 06:50:07;;;;;;;9.37;7.37;;;20.20;99.90;;;;;;4867579;29;20312;-77
2021/08/11 06:52:36;;;;;;;11.60;10.60;;;20.40;99.90;;;;;;4870819;29;20722;-77
2021/08/11 06:55:05;;;;;;;13.00;11.93;;;20.60;99.90;;;;;;4867957;29;20226;-77
2021/08/11 06:57:31;;;;;;;11.10;10.30;;;20.80;99.90;;;;;;4864926;29;20214;-77
2021/08/11 06:59:58;;;;;;;10.33;9.30;;;21.00;99.90;;;;;;4876724;29;20325;-77
2021/08/11 07:02:25;;;;;;;7.63;6.30;;;21.20;99.90;;;;;;4868427;29;20226;-77
2021/08/11 07:04:52;;;;;;;10.50;9.63;;;21.60;99.90;;;;;;4871104;29;20209;-77
2021/08/11 07:07:19;;;;;;;10.93;10.23;;;21.70;99.90;;;;;;4869798;29;20210;-77
2021/08/11 07:09:48;;;;;;;12.07;9.30;;;21.80;99.90;;;;;;4872841;29;20674;-77
2021/08/11 07:12:15;;;;;;;11.43;10.50;;;22.00;99.90;;;;;;4869602;29;20384;-77
2021/08/11 07:14:42;;;;;;;9.80;9.00;;;22.10;99.90;;;;;;4866587;29;20660;-78
2021/08/11 07:17:08;;;;;;;8.37;7.67;;;22.00;99.90;;;;;;4870393;29;20262;-77
2021/08/11 07:19:35;;;;;;;7.63;6.97;;;22.30;99.90;;;;;;4870484;29;20213;-77
2021/08/11 07:22:02;;;;;;;10.40;9.60;;;22.40;99.90;;;;;;4870284;29;20241;-77
2021/08/11 07:24:29;;;;;;;7.73;7.13;;;22.60;99.90;;;;;;4870371;29;20265;-77
2021/08/11 07:26:57;;;;;;;12.30;11.40;;;23.00;99.90;;;;;;4865954;29;20201;-77
2021/08/11 07:29:24;;;;;;;11.17;10.23;;;23.30;99.90;;;;;;4873085;29;20609;-77
2021/08/11 07:31:51;;;;;;;11.40;10.60;;;23.50;99.90;;;;;;4869601;29;20261;-77
2021/08/11 07:34:18;;;;;;;11.63;10.70;;;23.80;99.90;;;;;;4869963;29;20553;-78
2021/08/11 07:36:45;;;;;;;11.40;10.50;;;24.10;99.90;;;;;;4872329;29;20627;-78
2021/08/11 07:39:12;;;;;;;10.77;9.83;;;24.30;99.90;;;;;;4869438;29;20226;-78
2021/08/11 07:41:39;;;;;;;11.80;10.90;;;24.50;99.90;;;;;;4870667;29;20285;-77
2021/08/11 07:44:08;;;;;;;9.50;8.73;;;24.70;99.90;;;;;;4867247;29;20234;-78
2021/08/11 07:46:35;;;;;;;10.00;9.20;;;25.00;99.90;;;;;;4866644;29;20201;-78
2021/08/11 07:49:01;;;;;;;9.90;9.00;;;25.20;99.90;;;;;;4874241;29;20213;-77
2021/08/11 07:51:28;;;;;;;9.00;8.30;;;25.70;99.90;;;;;;4893380;23;20248;-80
2021/08/11 07:53:55;;;;;;;8.70;8.10;;;25.80;99.90;;;;;;4881902;29;20256;-80
2021/08/11 07:56:22;;;;;;;7.13;4.43;;;26.00;99.90;;;;;;4893659;29;20280;-80
2021/08/11 07:58:49;;;;;;;5.37;4.77;;;26.40;99.90;;;;;;4874753;29;20219;-81
2021/08/11 08:01:18;;;;;;;4.80;4.30;;;26.50;99.90;;;;;;4878615;29;20237;-80
2021/08/11 08:03:44;;;;;;;5.17;4.17;;;26.70;99.90;;;;;;4868298;29;20212;-80
2021/08/11 08:06:11;;;;;;;5.43;4.33;;;26.90;99.90;;;;;;4865250;29;20205;-80
2021/08/11 08:08:38;;;;;;;7.63;6.97;;;26.80;99.90;;;;;;4871413;29;20198;-80
2021/08/11 08:11:05;;;;;;;9.20;8.50;;;27.00;99.90;;;;;;4869029;29;20194;-81
2021/08/11 08:13:32;;;;;;;8.23;7.50;;;27.00;99.90;;;;;;4876159;29;20205;-80
2021/08/11 08:15:58;;;;;;;9.67;8.93;;;27.40;99.90;;;;;;4865049;29;20222;-81
2021/08/11 08:18:27;;;;;;;7.07;6.40;;;27.50;99.90;;;;;;4869943;29;20210;-80
2021/08/11 08:20:55;;;;;;;4.53;4.13;;;27.70;99.90;;;;;;4870479;29;20241;-80
2021/08/11 08:23:23;;;;;;;6.40;5.90;;;28.00;99.90;;;;;;4870766;29;20202;-80
2021/08/11 08:25:50;;;;;;;9.07;7.47;;;28.20;99.90;;;;;;4870556;29;20212;-80
2021/08/11 08:28:17;;;;;;;5.93;4.07;;;28.20;99.90;;;;;;4873598;29;20224;-80
2021/08/11 08:30:46;;;;;;;4.93;4.30;;;28.40;99.90;;;;;;4868905;29;20244;-80
2021/08/11 08:33:13;;;;;;;8.87;4.77;;;28.50;99.90;;;;;;4868450;29;20218;-80
2021/08/11 08:35:42;;;;;;;4.87;4.30;;;28.50;99.90;;;;;;4861076;29;20233;-80
2021/08/11 08:38:09;;;;;;;5.20;4.40;;;28.70;99.90;;;;;;4877840;29;20205;-81
2021/08/11 08:40:39;;;;;;;8.77;7.53;;;28.50;99.90;;;;;;4862854;29;20221;-80
2021/08/11 08:43:07;;;;;;;8.00;7.10;;;28.60;99.90;;;;;;4865715;29;20313;-81
2021/08/11 08:45:34;;;;;;;8.40;7.70;;;28.80;99.90;;;;;;4871502;29;20235;-81
2021/08/11 08:48:04;;;;;;;7.20;5.03;;;28.80;99.90;;;;;;4868479;29;20254;-81
2021/08/11 08:50:31;;;;;;;9.80;8.80;;;28.90;99.90;;;;;;4868379;29;20288;-81
2021/08/11 08:53:01;;;;;;;9.30;8.40;;;28.40;99.90;;;;;;4870068;29;20244;-81
2021/08/11 08:55:29;;;;;;;6.70;4.90;;;28.60;99.90;;;;;;4872004;29;20201;-81
2021/08/11 08:57:55;;;;;;;8.60;7.80;;;28.60;99.90;;;;;;4865414;29;20253;-81
2021/08/11 09:00:23;;;;;;;11.00;10.20;;;28.60;99.90;;;;;;4875808;29;20213;-81
2021/08/11 09:02:50;;;;;;;7.07;6.30;;;28.70;99.90;;;;;;4878507;29;20345;-82
2021/08/11 09:05:17;;;;;;;6.80;4.30;;;28.80;99.90;;;;;;4868247;29;20206;-81
2021/08/11 09:07:45;;;;;;;10.40;9.60;;;29.10;99.90;;;;;;4867839;29;20624;-80
2021/08/11 09:10:17;;;;;;;11.03;10.13;;;29.30;99.90;;;;;;4868460;29;20251;-81
2021/08/11 09:12:48;;;;;;;9.40;8.60;;;29.30;99.90;;;;;;4874141;29;20234;-81
2021/08/11 09:15:32;;;;;;;10.60;9.70;;;29.50;99.90;;;;;;4866505;29;20261;-80
2021/08/11 09:18:00;;;;;;;9.20;8.50;;;29.90;99.90;;;;;;4863594;29;20292;-80
2021/08/11 09:20:28;;;;;;;9.90;9.20;;;30.00;99.90;;;;;;4869671;29;20225;-81
2021/08/11 09:22:56;;;;;;;5.60;4.57;;;29.90;99.90;;;;;;4871572;29;20639;-80
2021/08/11 09:25:24;;;;;;;7.60;4.57;;;29.80;99.90;;;;;;4865413;29;20202;-80
2021/08/11 09:27:52;;;;;;;8.73;8.03;;;29.50;99.90;;;;;;4871371;29;20262;-81
2021/08/11 09:30:20;;;;;;;11.33;10.53;;;29.30;99.90;;;;;;4868569;29;20262;-81
2021/08/11 09:32:55;;;;;;;11.17;10.23;;;29.40;99.90;;;;;;4860781;29;20230;-80
2021/08/11 09:35:25;;;;;;;11.17;10.33;;;29.40;99.90;;;;;;4876986;29;20209;-81
2021/08/11 09:37:54;;;;;;;10.90;9.93;;;29.50;99.90;;;;;;4869454;29;20216;-81
2021/08/11 09:40:22;;;;;;;6.43;5.77;;;29.60;99.90;;;;;;4872742;29;20233;-81
2021/08/11 09:42:54;;;;;;;7.70;4.43;;;30.00;99.90;;;;;;4865451;29;20213;-81
2021/08/11 09:45:21;;;;;;;8.03;7.23;;;30.10;99.90;;;;;;4870441;29;20205;-81
2021/08/11 09:47:58;;;;;;;9.63;8.83;;;30.20;99.90;;;;;;4868576;29;20220;-81
2021/08/11 09:50:46;;;;;;;10.47;9.67;;;30.20;99.90;;;;;;4860182;29;20194;-81
2021/08/11 09:53:14;;;;;;;10.37;9.57;;;30.30;99.90;;;;;;4880634;29;20237;-81
2021/08/11 09:56:00;;;;;;;10.10;9.30;;;30.50;99.90;;;;;;4881367;29;20205;-81
2021/08/11 09:58:28;;;;;;;10.10;9.40;;;30.40;99.90;;;;;;4874559;29;20201;-83
2021/08/11 10:00:56;;;;;;;10.00;9.30;;;30.50;99.90;;;;;;4869438;29;20304;-81
2021/08/11 10:03:24;;;;;;;10.07;6.97;;;30.40;99.90;;;;;;4877379;29;20260;-81
2021/08/11 10:05:52;;;;;;;4.97;4.47;;;30.60;99.90;;;;;;4879165;29;20197;-81
2021/08/11 10:08:31;;;;;;;5.87;5.37;;;30.50;99.90;;;;;;4878742;29;20212;-81
2021/08/11 10:10:59;;;;;;;9.63;8.83;;;30.30;99.90;;;;;;4878555;29;20257;-81
2021/08/11 10:13:28;;;;;;;10.10;9.20;;;30.30;99.90;;;;;;4865980;29;20341;-79
2021/08/11 10:15:55;;;;;;;10.90;10.00;;;30.00;99.90;;;;;;4875017;29;20206;-79
2021/08/11 10:18:25;;;;;;;5.30;4.13;;;30.10;99.90;;;;;;4866497;29;20193;-81
2021/08/11 10:20:55;;;;;;;4.50;4.10;;;30.10;99.90;;;;;;4867529;29;20236;-81
2021/08/11 10:23:22;;;;;;;4.23;3.90;;;30.30;99.90;;;;;;4866775;29;20229;-81
2021/08/11 10:25:51;;;;;;;4.77;4.30;;;30.40;99.90;;;;;;4868973;29;20201;-81
2021/08/11 10:28:20;;;;;;;6.87;6.37;;;30.30;99.90;;;;;;4874610;29;20702;-80
2021/08/11 10:30:50;;;;;;;11.03;10.23;;;30.40;99.90;;;;;;4871632;29;20677;-80
2021/08/11 10:33:18;;;;;;;10.83;10.03;;;30.30;99.90;;;;;;4869489;29;20652;-81
2021/08/11 10:35:47;;;;;;;10.70;9.93;;;30.10;99.90;;;;;;4871834;29;20451;-80
2021/08/11 10:38:15;;;;;;;11.70;10.80;;;30.00;99.90;;;;;;4881517;29;20204;-80
2021/08/11 10:40:43;;;;;;;11.40;10.67;;;29.90;99.90;;;;;;4872425;29;20254;-81
2021/08/11 10:43:13;;;;;;;11.77;10.97;;;29.80;99.90;;;;;;4876425;29;20221;-81
2021/08/11 10:45:43;;;;;;;11.97;10.97;;;29.80;99.90;;;;;;4869613;29;20267;-80
2021/08/11 10:48:18;;;;;;;10.73;10.03;;;29.90;99.90;;;;;;4873776;29;20274;-81
2021/08/11 10:50:46;;;;;;;10.90;10.20;;;29.90;99.90;;;;;;4872569;29;20224;-81
2021/08/11 10:53:13;;;;;;;11.33;10.47;;;29.70;99.90;;;;;;4870461;29;20225;-81
2021/08/11 10:55:43;;;;;;;11.07;10.17;;;29.60;99.90;;;;;;4870311;29;20209;-81
2021/08/11 10:58:11;;;;;;;11.20;10.40;;;29.60;99.90;;;;;;4873441;29;20300;-81
2021/08/11 11:00:42;;;;;;;11.23;10.43;;;29.50;99.90;;;;;;4869703;29;20222;-80
2021/08/11 11:03:32;;;;;;;10.40;9.60;;;29.40;99.90;;;;;;4876298;29;20222;-81
2021/08/11 11:06:03;;;;;;;10.43;9.73;;;29.40;99.90;;;;;;4863470;29;20246;-80
2021/08/11 11:08:37;;;;;;;11.00;10.10;;;29.40;99.90;;;;;;4872356;29;20225;-81
2021/08/11 11:11:39;;;;;;;10.63;9.73;;;29.30;99.90;;;;;;4874684;29;20190;-83
2021/08/11 11:14:27;;;;;;;11.20;10.40;;;29.40;99.90;;;;;;4877862;29;20263;-81
2021/08/11 11:17:14;;;;;;;11.47;10.57;;;29.30;99.90;;;;;;4872997;29;20205;-79
2021/08/11 11:20:29;;;;;;;11.20;10.40;;;29.20;99.90;;;;;;4858803;29;20573;-81
2021/08/11 11:23:03;;;;;;;12.00;11.10;;;29.40;99.90;;;;;;4871279;29;20217;-80
2021/08/11 11:26:07;;;;;;;11.30;10.50;;;29.40;99.90;;;;;;4872257;29;20212;-81
2021/08/11 11:28:57;;;;;;;10.93;10.13;;;29.50;99.90;;;;;;4867035;29;20229;-80
2021/08/11 11:31:52;;;;;;;11.50;10.67;;;29.60;99.90;;;;;;4867343;29;20245;-82
2021/08/11 11:34:33;;;;;;;11.33;10.53;;;29.60;99.90;;;;;;4870768;29;20210;-81
2021/08/11 11:37:26;;;;;;;11.37;10.47;;;29.50;99.90;;;;;;4878861;29;20352;-80
2021/08/11 11:40:14;;;;;;;11.77;10.87;;;29.30;99.90;;;;;;4869835;29;20194;-80
2021/08/11 11:42:42;;;;;;;12.10;11.20;;;29.10;99.90;;;;;;4869007;29;20233;-81
2021/08/11 11:45:11;;;;;;;12.30;11.40;;;29.10;99.90;;;;;;4869413;29;20198;-81
2021/08/11 11:48:04;;;;;;;11.30;10.33;;;29.00;99.90;;;;;;4869640;29;20670;-81
2021/08/11 11:50:33;;;;;;;12.33;11.27;;;28.80;99.90;;;;;;4867000;29;20268;-80
2021/08/11 11:53:01;;;;;;;11.47;10.67;;;28.80;99.90;;;;;;4886566;29;20230;-82
2021/08/11 11:55:31;;;;;;;12.20;11.20;;;28.90;99.90;;;;;;4885985;29;20209;-81
2021/08/11 11:58:01;;;;;;;12.10;11.20;;;28.80;99.90;;;;;;4878452;29;20673;-80
2021/08/11 12:00:29;;;;;;;11.73;10.83;;;28.90;99.90;;;;;;4871327;29;20740;-80
2021/08/11 12:02:56;;;;;;;11.83;11.03;;;28.90;99.90;;;;;;4871017;29;20225;-80
2021/08/11 12:05:24;;;;;;;12.20;11.40;;;28.90;99.90;;;;;;4873745;29;20267;-80
2021/08/11 12:07:51;;;;;;;11.60;10.80;;;28.80;99.90;;;;;;4870968;29;20238;-81
2021/08/11 12:10:23;;;;;;;12.00;11.17;;;28.80;99.90;;;;;;4870251;29;20557;-80
2021/08/11 12:13:02;;;;;;;12.23;11.30;;;28.80;99.90;;;;;;4869727;29;20285;-80
2021/08/11 12:15:31;;;;;;;11.73;10.93;;;28.90;99.90;;;;;;4872179;29;20233;-81
2021/08/11 12:17:59;;;;;;;12.60;11.70;;;29.00;99.90;;;;;;4878910;29;20213;-80
2021/08/11 12:20:31;;;;;;;12.07;11.17;;;29.10;99.90;;;;;;4871606;29;20225;-81
2021/08/11 12:22:59;;;;;;;11.90;11.00;;;29.30;99.90;;;;;;4861114;29;20218;-81
2021/08/11 12:25:28;;;;;;;11.93;10.93;;;29.40;99.90;;;;;;4874351;29;20573;-80
2021/08/11 12:28:10;;;;;;;12.03;11.13;;;29.40;99.90;;;;;;4868818;29;20747;-81
2021/08/11 12:30:38;;;;;;;11.90;11.00;;;29.60;99.90;;;;;;4868470;29;20299;-82
2021/08/11 12:33:05;;;;;;;12.57;11.67;;;29.80;99.90;;;;;;4871057;29;20305;-81
2021/08/11 12:35:33;;;;;;;12.03;11.13;;;30.00;99.90;;;;;;4874087;29;20205;-80
2021/08/11 12:38:00;;;;;;;12.33;11.43;;;30.10;99.90;;;;;;4867983;29;20208;-81
2021/08/11 12:40:32;;;;;;;11.87;10.97;;;30.10;99.90;;;;;;4863318;29;20206;-81
2021/08/11 12:43:01;;;;;;;12.10;11.10;;;30.20;99.90;;;;;;4875551;29;20218;-80
2021/08/11 12:45:46;;;;;;;11.00;10.10;;;30.20;99.90;;;;;;4882944;29;20210;-81
2021/08/11 12:48:26;;;;;;;11.10;10.20;;;29.80;99.90;;;;;;4882575;29;20277;-80
2021/08/11 12:50:54;;;;;;;11.07;10.07;;;29.70;99.90;;;;;;4877880;29;20312;-81